Time;durP1;ratioP1;P1;durP2;ratioP2;P2;SDS_P1;SDS_P2;PMS_P1;PMS_P2;Temp;Humidity;BMP_temperature;BMP_pressure;BME280_temperature;BME280_humidity;BME280_pressure;Samples;Min_cycle;Max_cycle;Signal;HPM_P1;HPM_P2
2021/11/24 00:01:51;;;;;;;91.90;46.13;;;102.90;1740.80;;;;;;5052355;28;20021;-62
2021/11/24 00:04:17;;;;;;;105.70;53.30;;;102.80;1766.40;;;;;;5053111;28;20036;-60
2021/11/24 00:06:42;;;;;;;107.70;53.65;;;102.90;1817.60;;;;;;5053059;28;20033;-60
2021/11/24 00:09:08;;;;;;;98.22;50.80;;;103.10;1868.80;;;;;;5052735;28;20052;-61
2021/11/24 00:11:34;;;;;;;102.57;53.10;;;103.20;1817.60;;;;;;5053172;28;20120;-60
2021/11/24 00:13:59;;;;;;;99.38;52.83;;;128.00;1792.00;;;;;;5053185;28;20059;-60
2021/11/24 00:16:25;;;;;;;104.47;51.95;;;128.00;1715.20;;;;;;5052790;28;20600;-60
2021/11/24 00:18:51;;;;;;;105.05;51.97;;;128.10;1689.60;;;;;;5051396;28;20052;-60
2021/11/24 00:21:19;;;;;;;96.20;47.55;;;103.30;1766.40;;;;;;5052882;28;20033;-60
2021/11/24 00:23:45;;;;;;;92.78;46.15;;;103.30;1715.20;;;;;;5052713;28;20028;-60
2021/11/24 00:26:11;;;;;;;82.45;39.88;;;103.30;1664.00;;;;;;5053172;28;20074;-60
2021/11/24 00:28:37;;;;;;;85.18;45.85;;;103.30;1638.40;;;;;;5052728;28;20025;-60
2021/11/24 00:31:02;;;;;;;91.47;46.38;;;103.20;1715.20;;;;;;5052282;28;20033;-60
2021/11/24 00:33:28;;;;;;;77.22;40.00;;;103.20;1766.40;;;;;;5051292;28;20037;-60
2021/11/24 00:35:54;;;;;;;68.40;33.72;;;103.30;1664.00;;;;;;5052977;28;20021;-60
2021/11/24 00:38:20;;;;;;;58.33;31.70;;;103.20;1664.00;;;;;;5052354;28;20359;-60
2021/11/24 00:40:46;;;;;;;59.92;32.42;;;102.90;1715.20;;;;;;5052575;28;20151;-60
2021/11/24 00:43:12;;;;;;;56.08;31.92;;;102.90;1715.20;;;;;;5052519;28;20032;-60
2021/11/24 00:45:37;;;;;;;63.50;34.50;;;102.80;1740.80;;;;;;5052087;28;20463;-60
2021/11/24 00:48:04;;;;;;;65.43;35.05;;;102.60;1740.80;;;;;;5052513;28;20033;-60
2021/11/24 00:50:31;;;;;;;57.72;33.10;;;102.50;1740.80;;;;;;5052498;28;20021;-60
2021/11/24 00:52:56;;;;;;;52.45;28.02;;;77.70;1766.40;;;;;;5051714;28;20050;-60
2021/11/24 00:55:22;;;;;;;51.05;27.85;;;77.60;1766.40;;;;;;5052713;28;20060;-60
2021/11/24 00:57:48;;;;;;;50.58;28.40;;;102.40;1868.80;;;;;;5052837;28;20041;-59
2021/11/24 01:00:16;;;;;;;48.88;26.13;;;102.50;2073.60;;;;;;5052161;28;20120;-60
2021/11/24 01:02:43;;;;;;;38.67;22.40;;;102.60;1894.40;;;;;;5051901;28;20032;-59
2021/11/24 01:05:09;;;;;;;37.22;21.60;;;102.80;1817.60;;;;;;5052420;28;20037;-60
2021/11/24 01:07:35;;;;;;;31.98;18.98;;;102.90;1740.80;;;;;;5052063;28;20467;-60
2021/11/24 01:10:02;;;;;;;34.80;19.23;;;102.90;1715.20;;;;;;5052441;28;20528;-60
2021/11/24 01:12:28;;;;;;;29.48;17.77;;;102.80;1817.60;;;;;;5052513;28;20033;-60
2021/11/24 01:14:53;;;;;;;25.73;16.45;;;102.80;1766.40;;;;;;5052894;28;20051;-60
2021/11/24 01:17:19;;;;;;;28.08;17.38;;;102.90;1689.60;;;;;;5053356;28;20033;-60
2021/11/24 01:19:45;;;;;;;30.85;18.20;;;103.00;1638.40;;;;;;5053452;28;20147;-60
2021/11/24 01:22:10;;;;;;;31.48;18.67;;;102.60;1689.60;;;;;;5053380;28;20033;-60
2021/11/24 01:24:36;;;;;;;30.77;18.75;;;102.50;1766.40;;;;;;5053328;28;20374;-60
2021/11/24 01:27:02;;;;;;;30.63;18.33;;;102.60;1817.60;;;;;;5053351;28;20096;-60
2021/11/24 01:29:28;;;;;;;29.88;17.15;;;102.60;1715.20;;;;;;5052720;28;20155;-60
2021/11/24 01:31:54;;;;;;;28.08;17.65;;;102.40;1740.80;;;;;;5053566;28;20032;-60
2021/11/24 01:34:19;;;;;;;27.00;17.13;;;102.40;1766.40;;;;;;5053118;28;20472;-60
2021/11/24 01:36:45;;;;;;;26.58;16.73;;;77.60;1740.80;;;;;;5053358;28;20474;-60
2021/11/24 01:39:11;;;;;;;28.88;16.80;;;77.50;1766.40;;;;;;5053075;28;20041;-60
2021/11/24 01:41:36;;;;;;;28.83;16.45;;;77.50;1766.40;;;;;;5051651;28;20421;-60
2021/11/24 01:44:02;;;;;;;34.13;18.45;;;77.30;1792.00;;;;;;5051855;28;20098;-60
2021/11/24 01:46:29;;;;;;;31.63;20.02;;;77.20;1766.40;;;;;;5052861;28;20021;-60
2021/11/24 01:48:55;;;;;;;43.05;22.60;;;77.20;1817.60;;;;;;5053205;28;20092;-60
2021/11/24 01:51:22;;;;;;;49.38;25.40;;;77.20;1920.00;;;;;;5052931;28;20040;-60
2021/11/24 01:53:48;;;;;;;40.38;22.65;;;77.40;1996.80;;;;;;5051432;28;20045;-60
2021/11/24 01:56:14;;;;;;;38.65;22.27;;;77.60;1945.60;;;;;;5054540;28;20056;-60
2021/11/24 01:58:41;;;;;;;49.47;27.27;;;102.40;1868.80;;;;;;5056492;28;20064;-60
2021/11/24 02:01:07;;;;;;;48.45;28.05;;;102.50;1792.00;;;;;;5055182;28;20108;-60
2021/11/24 02:03:33;;;;;;;56.05;30.50;;;102.60;1715.20;;;;;;5056391;28;20024;-60
2021/11/24 02:05:59;;;;;;;52.97;29.48;;;102.70;1664.00;;;;;;5056642;28;20029;-59
2021/11/24 02:08:25;;;;;;;52.83;29.67;;;102.40;1715.20;;;;;;5056548;28;20104;-60
2021/11/24 02:10:51;;;;;;;53.53;28.33;;;77.60;1740.80;;;;;;5056346;28;20085;-60
2021/11/24 02:13:16;;;;;;;48.17;26.98;;;77.40;1766.40;;;;;;5056423;28;20037;-60
2021/11/24 02:15:42;;;;;;;50.05;27.73;;;77.30;1766.40;;;;;;5056242;28;20024;-60
2021/11/24 02:18:08;;;;;;;53.22;27.35;;;77.30;1766.40;;;;;;5056263;28;20135;-59
2021/11/24 02:20:34;;;;;;;53.60;28.58;;;77.20;1766.40;;;;;;5056103;28;20139;-60
2021/11/24 02:23:00;;;;;;;52.63;28.73;;;77.10;1766.40;;;;;;5056174;28;20060;-60
2021/11/24 02:25:26;;;;;;;51.72;28.25;;;77.00;1792.00;;;;;;5056137;28;20501;-59
2021/11/24 02:27:52;;;;;;;68.68;29.40;;;77.10;1817.60;;;;;;5056179;28;20029;-60
2021/11/24 02:30:18;;;;;;;46.15;25.58;;;77.20;1971.20;;;;;;5055942;28;20029;-60
2021/11/24 02:32:44;;;;;;;43.33;24.13;;;77.50;1920.00;;;;;;5055526;28;20102;-60
2021/11/24 02:35:10;;;;;;;37.47;22.00;;;77.60;1843.20;;;;;;5055930;28;20036;-60
2021/11/24 02:37:36;;;;;;;37.80;22.02;;;77.70;1792.00;;;;;;5056102;28;20078;-60
2021/11/24 02:40:02;;;;;;;40.55;23.83;;;102.40;1715.20;;;;;;5055692;28;20087;-60
2021/11/24 02:42:28;;;;;;;45.08;25.15;;;102.40;1792.00;;;;;;5055844;28;20029;-60
2021/11/24 02:44:55;;;;;;;40.83;23.65;;;102.50;1766.40;;;;;;5055808;28;20025;-60
2021/11/24 02:47:22;;;;;;;40.92;22.33;;;102.50;1715.20;;;;;;5055694;28;20031;-60
2021/11/24 02:49:50;;;;;;;42.20;22.00;;;102.40;1689.60;;;;;;5055531;28;20033;-60
2021/11/24 02:52:17;;;;;;;39.65;21.83;;;77.50;1740.80;;;;;;5055554;28;20017;-60
2021/11/24 02:54:52;;;;;;;46.47;25.23;;;77.60;1766.40;;;;;;5055398;28;20056;-60
2021/11/24 02:57:18;;;;;;;40.38;23.75;;;77.60;1817.60;;;;;;5055440;28;20044;-60
2021/11/24 02:59:44;;;;;;;40.00;22.08;;;77.70;1740.80;;;;;;5055678;28;20536;-60
2021/11/24 03:02:10;;;;;;;39.50;21.73;;;77.50;1766.40;;;;;;5055379;28;20085;-60
2021/11/24 03:04:37;;;;;;;36.30;21.40;;;77.40;1792.00;;;;;;5053893;28;20175;-60
2021/11/24 03:07:04;;;;;;;39.55;23.23;;;77.30;1792.00;;;;;;5054623;28;20028;-59
2021/11/24 03:09:30;;;;;;;37.45;22.85;;;77.30;1817.60;;;;;;5055168;28;20036;-59
2021/11/24 03:11:56;;;;;;;42.85;23.40;;;77.20;1792.00;;;;;;5055135;28;20021;-60
2021/11/24 03:14:22;;;;;;;40.03;20.70;;;77.10;1792.00;;;;;;5055288;28;20052;-59
2021/11/24 03:16:48;;;;;;;43.05;22.92;;;76.90;1817.60;;;;;;5054938;28;20035;-60
2021/11/24 03:19:14;;;;;;;41.70;23.13;;;77.00;1868.80;;;;;;5055151;28;20112;-60
2021/11/24 03:21:41;;;;;;;44.40;23.50;;;77.10;1920.00;;;;;;5055008;28;20128;-60
2021/11/24 03:24:06;;;;;;;39.30;23.02;;;77.30;1894.40;;;;;;5055072;28;20043;-61
2021/11/24 03:26:32;;;;;;;40.22;21.25;;;77.50;1868.80;;;;;;5054334;28;20025;-59
2021/11/24 03:28:58;;;;;;;37.60;19.77;;;77.60;1766.40;;;;;;5054929;28;20082;-60
2021/11/24 03:31:24;;;;;;;39.05;22.02;;;77.60;1766.40;;;;;;5054317;28;20032;-60
2021/11/24 03:33:50;;;;;;;40.05;21.75;;;77.50;1868.80;;;;;;5054823;28;20025;-60
2021/11/24 03:36:16;;;;;;;39.17;21.85;;;77.50;1792.00;;;;;;5054758;28;20036;-59
2021/11/24 03:38:42;;;;;;;43.72;23.58;;;77.60;1740.80;;;;;;5054690;28;20033;-60
2021/11/24 03:41:07;;;;;;;50.00;28.05;;;77.60;1689.60;;;;;;5054415;28;20021;-59
2021/11/24 03:43:33;;;;;;;43.47;25.23;;;77.50;1817.60;;;;;;5054619;28;20029;-60
2021/11/24 03:45:59;;;;;;;42.97;23.05;;;77.60;1792.00;;;;;;5054720;28;20111;-60
2021/11/24 03:48:25;;;;;;;36.30;21.02;;;77.60;1740.80;;;;;;5054681;28;20490;-60
2021/11/24 03:50:51;;;;;;;39.67;21.25;;;77.40;1740.80;;;;;;5054476;28;20033;-60
2021/11/24 03:53:17;;;;;;;38.92;19.92;;;77.20;1792.00;;;;;;5054198;28;20033;-59
2021/11/24 03:55:43;;;;;;;30.83;18.25;;;77.10;1766.40;;;;;;5054411;28;20021;-60
2021/11/24 03:58:08;;;;;;;34.65;19.25;;;77.00;1792.00;;;;;;5054193;28;20398;-61
2021/11/24 04:00:35;;;;;;;36.95;21.55;;;76.90;1792.00;;;;;;5054109;28;20066;-60
2021/11/24 04:03:01;;;;;;;37.58;21.73;;;76.80;1792.00;;;;;;5053973;28;20029;-60
2021/11/24 04:05:30;;;;;;;39.67;23.17;;;76.80;1817.60;;;;;;5053993;28;20028;-59
2021/11/24 04:07:55;;;;;;;42.65;23.80;;;52.00;1792.00;;;;;;5054290;28;20028;-60
2021/11/24 04:10:21;;;;;;;44.47;24.75;;;51.90;1817.60;;;;;;5054629;28;20410;-59
2021/11/24 04:12:47;;;;;;;45.80;24.70;;;52.00;1817.60;;;;;;5053738;28;20526;-60
2021/11/24 04:15:16;;;;;;;45.42;24.38;;;76.80;1894.40;;;;;;5054151;28;20067;-60
2021/11/24 04:17:43;;;;;;;44.72;24.63;;;76.80;1971.20;;;;;;5053954;28;20479;-60
2021/11/24 04:20:12;;;;;;;45.92;23.17;;;77.10;1945.60;;;;;;5053543;28;20036;-60
2021/11/24 04:22:38;;;;;;;36.45;22.17;;;77.30;1868.80;;;;;;5054008;28;20108;-60
2021/11/24 04:25:05;;;;;;;41.72;22.05;;;77.30;1740.80;;;;;;5053746;28;20105;-60
2021/11/24 04:27:30;;;;;;;40.05;21.27;;;77.40;1715.20;;;;;;5053832;28;20079;-59
2021/11/24 04:29:56;;;;;;;41.28;22.52;;;77.30;1740.80;;;;;;5053659;28;20024;-60
2021/11/24 04:32:24;;;;;;;46.67;24.90;;;77.20;1766.40;;;;;;5053641;28;20025;-60
2021/11/24 04:34:50;;;;;;;60.95;34.38;;;77.20;1843.20;;;;;;5053835;28;20029;-60
2021/11/24 04:37:16;;;;;;;85.07;45.63;;;77.20;1868.80;;;;;;5053664;28;20021;-60
2021/11/24 04:39:42;;;;;;;93.47;47.70;;;77.20;1868.80;;;;;;5053592;28;20505;-59
2021/11/24 04:42:08;;;;;;;105.47;46.03;;;77.10;1894.40;;;;;;5053709;28;20463;-60
2021/11/24 04:44:33;;;;;;;96.00;42.08;;;77.20;1920.00;;;;;;5053685;28;20083;-60
2021/11/24 04:46:59;;;;;;;83.80;35.83;;;77.20;1894.40;;;;;;5053724;28;20044;-60
2021/11/24 04:49:25;;;;;;;74.28;36.03;;;77.20;1894.40;;;;;;5053725;28;20083;-60
2021/11/24 04:51:50;;;;;;;70.85;33.47;;;77.20;1920.00;;;;;;5053717;28;20017;-60
2021/11/24 04:54:16;;;;;;;71.72;32.83;;;77.10;1920.00;;;;;;5053456;28;20060;-59
2021/11/24 04:56:42;;;;;;;61.70;30.00;;;77.10;1920.00;;;;;;5053636;28;20437;-60
2021/11/24 04:59:08;;;;;;;59.08;29.60;;;77.20;1920.00;;;;;;5053149;28;20356;-59
2021/11/24 05:01:33;;;;;;;58.38;31.05;;;77.20;1920.00;;;;;;5051974;28;20581;-60
2021/11/24 05:03:59;;;;;;;58.42;30.08;;;77.20;1894.40;;;;;;5053914;28;20108;-60
2021/11/24 05:06:25;;;;;;;62.50;31.40;;;77.20;1920.00;;;;;;5053553;28;20367;-59
2021/11/24 05:08:51;;;;;;;55.05;29.67;;;77.20;1920.00;;;;;;5053485;28;20029;-60
2021/11/24 05:11:19;;;;;;;54.63;30.17;;;77.20;1920.00;;;;;;5053327;28;20075;-60
2021/11/24 05:13:50;;;;;;;61.42;29.70;;;77.30;1894.40;;;;;;5053537;28;20028;-60
2021/11/24 05:16:17;;;;;;;56.33;30.05;;;77.30;1894.40;;;;;;5053485;28;20032;-60
2021/11/24 05:18:49;;;;;;;53.70;29.73;;;77.30;1920.00;;;;;;5053347;28;20037;-60
2021/11/24 05:21:23;;;;;;;61.60;34.25;;;77.30;1920.00;;;;;;5053413;28;20028;-60
2021/11/24 05:23:49;;;;;;;61.58;32.13;;;77.30;1920.00;;;;;;5053424;28;20092;-60
2021/11/24 05:26:15;;;;;;;68.40;34.80;;;77.30;1920.00;;;;;;5053181;28;20024;-60
2021/11/24 05:28:41;;;;;;;68.30;35.58;;;77.30;1894.40;;;;;;5053336;28;20433;-60
2021/11/24 05:31:08;;;;;;;78.20;36.55;;;77.40;1894.40;;;;;;5053325;28;20032;-59
2021/11/24 05:33:35;;;;;;;77.13;38.75;;;77.30;1894.40;;;;;;5057120;28;20025;-60
2021/11/24 05:36:02;;;;;;;77.38;38.05;;;77.30;1894.40;;;;;;5057084;28;20028;-60
2021/11/24 05:38:28;;;;;;;83.63;38.13;;;77.30;1894.40;;;;;;5056962;28;20040;-60
2021/11/24 05:40:53;;;;;;;97.82;41.90;;;77.30;1920.00;;;;;;5057036;28;20021;-60
2021/11/24 05:43:22;;;;;;;96.32;45.47;;;77.40;1920.00;;;;;;5057021;28;20047;-59
2021/11/24 05:46:10;;;;;;;124.38;53.97;;;77.40;1894.40;;;;;;5056888;28;20033;-60
2021/11/24 05:48:34;;;;;;;148.13;70.78;;;77.40;1894.40;;;;;;5056511;28;20032;-59
2021/11/24 05:51:00;;;;;;;173.43;81.90;;;77.40;1894.40;;;;;;5056875;28;20028;-60
2021/11/24 05:53:26;;;;;;;165.80;78.22;;;77.40;1894.40;;;;;;5056757;28;20067;-60
2021/11/24 05:55:51;;;;;;;183.27;87.82;;;77.40;1894.40;;;;;;5055300;28;20029;-60
2021/11/24 05:58:18;;;;;;;157.63;75.75;;;77.40;1894.40;;;;;;5056727;28;20029;-60
2021/11/24 06:00:45;;;;;;;147.52;74.63;;;77.30;1920.00;;;;;;5056658;28;20104;-60
2021/11/24 06:03:11;;;;;;;164.15;80.45;;;77.40;1894.40;;;;;;5056527;28;20025;-60
2021/11/24 06:05:37;;;;;;;189.98;88.88;;;77.40;1894.40;;;;;;5056391;28;20372;-60
2021/11/24 06:08:03;;;;;;;209.50;100.93;;;77.40;1894.40;;;;;;5056308;28;20028;-60
2021/11/24 06:10:30;;;;;;;197.75;94.65;;;77.40;1894.40;;;;;;5056571;28;20056;-60
2021/11/24 06:12:55;;;;;;;188.57;87.68;;;77.40;1894.40;;;;;;5055970;28;20025;-60
2021/11/24 06:15:21;;;;;;;168.60;86.00;;;77.40;1894.40;;;;;;5054969;28;20064;-59
2021/11/24 06:17:48;;;;;;;169.20;85.78;;;77.50;1894.40;;;;;;5054797;28;20083;-60
2021/11/24 06:20:15;;;;;;;180.25;90.43;;;77.40;1894.40;;;;;;5056499;28;20053;-59
2021/11/24 06:22:43;;;;;;;184.77;95.05;;;77.40;1894.40;;;;;;5056135;28;20029;-60
2021/11/24 06:25:11;;;;;;;205.00;96.65;;;77.40;1894.40;;;;;;5056135;28;20100;-60
2021/11/24 06:27:38;;;;;;;197.27;96.88;;;77.50;1894.40;;;;;;5055975;28;20086;-59
2021/11/24 06:30:05;;;;;;;205.55;98.72;;;77.50;1894.40;;;;;;5056134;28;20025;-60
2021/11/24 06:32:31;;;;;;;190.02;95.47;;;77.50;1894.40;;;;;;5055821;28;20467;-60
2021/11/24 06:34:57;;;;;;;204.15;93.35;;;77.50;1894.40;;;;;;5056056;28;20036;-60
2021/11/24 06:37:22;;;;;;;190.55;94.07;;;77.60;1920.00;;;;;;5055667;28;20118;-59
2021/11/24 06:39:48;;;;;;;217.25;101.82;;;77.70;1894.40;;;;;;5055755;28;20124;-59
2021/11/24 06:42:14;;;;;;;259.75;124.53;;;102.40;1894.40;;;;;;5054914;28;20061;-59
2021/11/24 06:44:40;;;;;;;253.93;120.63;;;102.50;1894.40;;;;;;5054991;28;20025;-59
2021/11/24 06:47:05;;;;;;;273.83;125.00;;;102.40;1920.00;;;;;;5055451;28;20104;-59
2021/11/24 06:49:31;;;;;;;289.15;129.70;;;102.40;1894.40;;;;;;5055080;28;20492;-59
2021/11/24 06:51:57;;;;;;;309.00;127.00;;;102.40;1894.40;;;;;;5055328;28;20021;-59
2021/11/24 06:54:23;;;;;;;306.50;125.40;;;102.40;1920.00;;;;;;5054724;28;20048;-59
2021/11/24 06:56:49;;;;;;;284.05;122.82;;;102.40;1920.00;;;;;;5054934;28;20216;-59
2021/11/24 06:59:16;;;;;;;259.95;124.20;;;102.40;1920.00;;;;;;5055693;28;20100;-59
2021/11/24 07:01:42;;;;;;;272.45;128.23;;;102.50;1945.60;;;;;;5053554;28;20466;-59
2021/11/24 07:04:09;;;;;;;269.33;134.32;;;102.50;1945.60;;;;;;5053369;28;20374;-60
2021/11/24 07:06:35;;;;;;;274.58;130.70;;;102.50;1945.60;;;;;;5053788;28;20029;-59
2021/11/24 07:09:03;;;;;;;256.05;123.88;;;102.60;1945.60;;;;;;5053765;28;20116;-59
2021/11/24 07:11:30;;;;;;;223.65;112.40;;;102.60;1945.60;;;;;;5050832;28;20025;-59
2021/11/24 07:13:57;;;;;;;212.55;105.70;;;102.70;1945.60;;;;;;5051774;28;20485;-59
2021/11/24 07:16:22;;;;;;;217.32;103.13;;;102.70;1945.60;;;;;;5052340;28;20037;-63
2021/11/24 07:18:48;;;;;;;195.80;99.57;;;102.70;1945.60;;;;;;5055046;28;20056;-62
2021/11/24 07:21:14;;;;;;;168.95;91.75;;;102.80;1920.00;;;;;;5053856;28;20048;-59
2021/11/24 07:23:40;;;;;;;145.10;77.45;;;102.80;1920.00;;;;;;5053555;28;20028;-58
2021/11/24 07:26:06;;;;;;;125.90;71.65;;;102.90;1920.00;;;;;;5053424;28;20040;-58
2021/11/24 07:28:31;;;;;;;128.57;68.68;;;102.90;1920.00;;;;;;5053756;28;20036;-59
2021/11/24 07:30:57;;;;;;;128.90;68.47;;;103.00;1920.00;;;;;;5055320;28;20059;-59
2021/11/24 07:33:23;;;;;;;119.47;65.32;;;103.00;1920.00;;;;;;5053530;28;20127;-65
2021/11/24 07:35:49;;;;;;;113.10;63.95;;;103.20;2176.00;;;;;;5054751;28;20181;-64
2021/11/24 07:38:15;;;;;;;123.03;65.15;;;103.30;1971.20;;;;;;5054683;28;20048;-63
2021/11/24 07:40:40;;;;;;;118.05;65.43;;;103.30;1920.00;;;;;;5054349;28;20025;-64
2021/11/24 07:43:07;;;;;;;97.80;52.40;;;103.30;1920.00;;;;;;5054591;28;20463;-58
2021/11/24 07:45:33;;;;;;;100.20;53.08;;;103.30;1894.40;;;;;;5054753;28;20075;-59
2021/11/24 07:47:59;;;;;;;100.32;49.00;;;103.30;1894.40;;;;;;5054647;28;20025;-64
2021/11/24 07:50:25;;;;;;;80.40;44.42;;;103.30;1920.00;;;;;;5054417;28;20461;-59
2021/11/24 07:52:51;;;;;;;71.35;38.85;;;128.00;1920.00;;;;;;5054490;28;20079;-59
2021/11/24 07:55:17;;;;;;;61.22;33.80;;;128.10;1920.00;;;;;;5053850;28;20554;-59
2021/11/24 07:57:43;;;;;;;56.80;32.33;;;128.20;1920.00;;;;;;5054700;28;20071;-59
2021/11/24 08:00:10;;;;;;;53.08;32.53;;;128.30;1920.00;;;;;;5054258;28;20502;-59
2021/11/24 08:02:35;;;;;;;57.15;32.90;;;128.30;1920.00;;;;;;5054129;28;20024;-59
2021/11/24 08:05:03;;;;;;;56.40;32.42;;;128.40;1920.00;;;;;;5053064;28;20040;-59
2021/11/24 08:07:31;;;;;;;57.25;31.58;;;128.70;1920.00;;;;;;5054322;28;20064;-64
2021/11/24 08:09:58;;;;;;;56.78;28.83;;;128.60;1920.00;;;;;;5054333;28;20151;-65
2021/11/24 08:12:23;;;;;;;44.13;26.35;;;128.70;1920.00;;;;;;5054240;28;20098;-60
2021/11/24 08:14:49;;;;;;;44.60;27.42;;;128.70;1920.00;;;;;;5054144;28;20517;-60
2021/11/24 08:17:15;;;;;;;51.22;29.92;;;128.80;1920.00;;;;;;5053587;28;20395;-60
2021/11/24 08:19:41;;;;;;;50.78;29.63;;;128.90;1920.00;;;;;;5054073;28;20501;-64
2021/11/24 08:22:06;;;;;;;47.40;29.08;;;128.80;1920.00;;;;;;5053968;28;20014;-65
2021/11/24 08:24:32;;;;;;;45.72;27.92;;;153.60;1920.00;;;;;;5054026;28;20021;-64
2021/11/24 08:26:58;;;;;;;51.42;28.90;;;153.70;1920.00;;;;;;5053803;28;20025;-59
2021/11/24 08:29:23;;;;;;;52.20;30.95;;;153.70;1920.00;;;;;;5053916;28;20537;-64
2021/11/24 08:31:49;;;;;;;55.00;31.00;;;153.70;1945.60;;;;;;5053924;28;20033;-59
2021/11/24 08:34:15;;;;;;;66.57;35.85;;;153.80;1920.00;;;;;;5053420;28;20112;-64
2021/11/24 08:36:40;;;;;;;62.75;35.63;;;153.90;1945.60;;;;;;5052484;28;20032;-64
2021/11/24 08:39:07;;;;;;;64.97;35.67;;;154.00;1945.60;;;;;;5053720;28;20067;-60
2021/11/24 08:41:33;;;;;;;73.47;40.75;;;154.10;1920.00;;;;;;5053630;28;20025;-59
2021/11/24 08:43:59;;;;;;;71.13;38.30;;;154.20;1945.60;;;;;;5053539;28;20036;-59
2021/11/24 08:46:25;;;;;;;66.00;37.65;;;154.40;1920.00;;;;;;5053746;28;20049;-62
2021/11/24 08:48:51;;;;;;;67.45;39.22;;;154.50;1894.40;;;;;;5053593;28;20497;-59
2021/11/24 08:51:17;;;;;;;75.95;44.08;;;154.50;1894.40;;;;;;5053634;28;20021;-64
2021/11/24 08:53:43;;;;;;;67.00;39.72;;;179.20;1894.40;;;;;;5053407;28;20041;-59
2021/11/24 08:56:09;;;;;;;59.45;36.15;;;179.40;1920.00;;;;;;5053532;28;20032;-59
2021/11/24 08:58:34;;;;;;;64.40;37.03;;;179.50;1920.00;;;;;;5053560;28;20474;-59
2021/11/24 09:01:00;;;;;;;53.38;28.23;;;179.60;1868.80;;;;;;5053439;28;20052;-65
2021/11/24 09:03:26;;;;;;;40.13;26.40;;;179.70;1817.60;;;;;;5053363;28;20486;-63
2021/11/24 09:05:52;;;;;;;43.00;27.10;;;179.70;1817.60;;;;;;5054585;28;20021;-64
2021/11/24 09:08:18;;;;;;;51.08;28.73;;;179.80;1817.60;;;;;;5057719;28;20057;-59
2021/11/24 09:10:44;;;;;;;48.92;28.50;;;179.80;1843.20;;;;;;5057638;28;20335;-59
2021/11/24 09:13:10;;;;;;;55.63;29.25;;;179.90;1817.60;;;;;;5057607;28;20025;-59
2021/11/24 09:15:36;;;;;;;63.00;34.30;;;180.00;1843.20;;;;;;5057553;28;20037;-63
2021/11/24 09:18:02;;;;;;;46.85;27.15;;;180.10;1894.40;;;;;;5057582;28;20048;-59
2021/11/24 09:20:29;;;;;;;43.70;24.45;;;180.10;1843.20;;;;;;5055914;28;20041;-61
2021/11/24 09:22:55;;;;;;;41.50;24.50;;;204.80;1817.60;;;;;;5057667;28;20485;-59
2021/11/24 09:25:24;;;;;;;46.58;28.65;;;204.90;1817.60;;;;;;5056848;28;20033;-59
2021/11/24 09:28:00;;;;;;;59.63;35.42;;;205.00;1766.40;;;;;;5056347;28;20374;-59
2021/11/24 09:30:27;;;;;;;47.45;29.55;;;205.00;1792.00;;;;;;5057120;28;20021;-64
2021/11/24 09:32:53;;;;;;;41.40;25.42;;;205.20;1766.40;;;;;;5057367;28;20044;-59
2021/11/24 09:35:19;;;;;;;30.83;21.02;;;205.30;1766.40;;;;;;5057154;28;20021;-64
2021/11/24 09:37:45;;;;;;;36.67;23.42;;;205.30;1715.20;;;;;;5056850;28;20029;-59
2021/11/24 09:40:12;;;;;;;40.92;23.00;;;205.30;1715.20;;;;;;5057047;28;20033;-60
2021/11/24 09:42:41;;;;;;;34.30;21.40;;;205.40;1740.80;;;;;;5056996;28;20431;-59
2021/11/24 09:45:09;;;;;;;34.72;22.17;;;205.50;1715.20;;;;;;5055458;28;20033;-59
2021/11/24 09:47:36;;;;;;;35.03;23.88;;;205.50;1715.20;;;;;;5056765;28;20025;-64
2021/11/24 09:50:05;;;;;;;35.58;20.95;;;205.50;1740.80;;;;;;5056723;28;20052;-59
2021/11/24 09:52:33;;;;;;;31.08;18.98;;;205.60;1689.60;;;;;;5055500;28;20033;-59
2021/11/24 09:55:00;;;;;;;43.97;25.85;;;205.70;1689.60;;;;;;5056702;28;20552;-59
2021/11/24 09:57:27;;;;;;;30.55;20.63;;;205.70;1715.20;;;;;;5056779;28;20101;-61
2021/11/24 09:59:54;;;;;;;36.85;21.00;;;230.40;1715.20;;;;;;5056499;28;20600;-59
2021/11/24 10:02:20;;;;;;;33.00;19.52;;;230.40;1715.20;;;;;;5056665;28;20095;-59
2021/11/24 10:04:48;;;;;;;29.58;19.42;;;230.50;1740.80;;;;;;5055288;28;20061;-60
2021/11/24 10:07:17;;;;;;;28.10;17.67;;;230.50;1715.20;;;;;;5055222;28;20070;-59
2021/11/24 10:09:43;;;;;;;29.55;17.70;;;230.60;1689.60;;;;;;5056537;28;20099;-59
2021/11/24 10:12:10;;;;;;;29.95;18.30;;;230.70;1689.60;;;;;;5054895;28;20041;-59
2021/11/24 10:14:38;;;;;;;28.80;18.95;;;230.70;1689.60;;;;;;5056159;28;20386;-60
2021/11/24 10:17:14;;;;;;;28.67;17.80;;;230.80;1612.80;;;;;;5055831;28;20028;-59
2021/11/24 10:19:56;;;;;;;26.13;17.98;;;230.80;1638.40;;;;;;5056451;28;20044;-59
2021/11/24 10:22:22;;;;;;;26.88;17.77;;;230.80;1638.40;;;;;;5056355;28;20032;-59
2021/11/24 10:24:53;;;;;;;25.90;16.63;;;230.90;1638.40;;;;;;5055847;28;20036;-63
2021/11/24 10:27:37;;;;;;;23.73;16.30;;;231.00;1638.40;;;;;;5055860;28;20470;-64
2021/11/24 10:30:04;;;;;;;36.22;22.50;;;231.00;1612.80;;;;;;5055988;28;20492;-59
2021/11/24 10:32:30;;;;;;;27.42;17.48;;;231.10;1612.80;;;;;;5056005;28;20116;-63
2021/11/24 10:34:57;;;;;;;35.78;21.15;;;231.10;1587.20;;;;;;5056038;28;20051;-59
2021/11/24 10:37:23;;;;;;;64.32;35.35;;;231.10;1587.20;;;;;;5054496;28;20124;-64
2021/11/24 10:39:51;;;;;;;121.70;57.40;;;231.20;1587.20;;;;;;5056150;28;20108;-64
2021/11/24 10:42:22;;;;;;;126.40;66.75;;;231.20;1587.20;;;;;;5055804;28;20021;-59
2021/11/24 10:44:54;;;;;;;63.47;36.55;;;231.20;1561.60;;;;;;5055920;28;20393;-59
2021/11/24 10:47:21;;;;;;;63.78;37.13;;;231.30;1587.20;;;;;;5055831;28;20100;-63
2021/11/24 10:49:52;;;;;;;50.58;33.58;;;231.30;1561.60;;;;;;5055736;28;20025;-60
2021/11/24 10:52:25;;;;;;;58.95;39.35;;;256.00;1587.20;;;;;;5055585;28;20052;-60
2021/11/24 10:55:11;;;;;;;42.13;26.17;;;256.00;1587.20;;;;;;5055328;28;20166;-63
2021/11/24 10:57:41;;;;;;;36.60;23.23;;;256.10;1536.00;;;;;;5055535;28;20028;-59
2021/11/24 11:00:11;;;;;;;28.85;20.40;;;256.20;1536.00;;;;;;5055462;28;20033;-63
2021/11/24 11:02:38;;;;;;;38.60;21.15;;;256.30;1536.00;;;;;;5055480;28;20078;-59
2021/11/24 11:05:12;;;;;;;35.05;20.13;;;256.40;1536.00;;;;;;5054051;28;20033;-59
2021/11/24 11:07:53;;;;;;;27.05;18.38;;;256.40;1510.40;;;;;;5054712;28;20021;-61
2021/11/24 11:10:28;;;;;;;27.98;16.27;;;256.40;1484.80;;;;;;5051499;28;20021;-59
2021/11/24 11:12:57;;;;;;;34.72;18.73;;;256.30;1484.80;;;;;;5053791;28;20031;-61
2021/11/24 11:15:24;;;;;;;35.13;16.67;;;256.30;1459.20;;;;;;5053451;28;20021;-59
2021/11/24 11:17:55;;;;;;;27.55;17.20;;;256.30;1459.20;;;;;;5053808;28;20036;-60
2021/11/24 11:20:22;;;;;;;28.80;16.13;;;256.40;1459.20;;;;;;5053587;28;20147;-59
2021/11/24 11:23:08;;;;;;;29.63;16.73;;;256.40;1459.20;;;;;;5053371;28;20050;-59
2021/11/24 11:25:35;;;;;;;22.58;15.52;;;256.40;1433.60;;;;;;5053697;28;20098;-59
2021/11/24 11:28:01;;;;;;;24.30;15.73;;;256.40;1433.60;;;;;;5053738;28;20028;-59
2021/11/24 11:30:30;;;;;;;23.15;15.38;;;256.40;1433.60;;;;;;5054958;28;20023;-59
2021/11/24 11:32:56;;;;;;;21.80;15.60;;;256.50;1433.60;;;;;;5054164;28;20425;-59
2021/11/24 11:35:23;;;;;;;23.80;16.23;;;256.40;1459.20;;;;;;5054186;28;20131;-58
2021/11/24 11:37:49;;;;;;;30.88;17.17;;;256.50;1433.60;;;;;;5054035;28;20048;-59
2021/11/24 11:40:16;;;;;;;32.70;17.67;;;256.50;1433.60;;;;;;5053680;28;20049;-59
2021/11/24 11:42:44;;;;;;;31.20;18.23;;;256.60;1459.20;;;;;;5053961;28;20071;-59
2021/11/24 11:45:13;;;;;;;30.48;17.75;;;256.60;1433.60;;;;;;5054232;28;20476;-58
2021/11/24 11:47:53;;;;;;;24.90;16.40;;;256.60;1408.00;;;;;;5054748;28;20047;-59
2021/11/24 11:50:46;;;;;;;22.67;15.38;;;256.60;1433.60;;;;;;5054687;28;20075;-59
2021/11/24 11:53:27;;;;;;;25.25;15.02;;;256.70;1433.60;;;;;;5054368;28;20100;-59
2021/11/24 11:56:37;;;;;;;27.25;16.73;;;256.70;1433.60;;;;;;5054428;28;20025;-59
2021/11/24 11:59:16;;;;;;;23.23;15.60;;;256.70;1433.60;;;;;;5053215;28;20040;-59
2021/11/24 12:01:42;;;;;;;24.80;16.23;;;256.70;1433.60;;;;;;5054460;28;20025;-59